sensor_id;sensor_type;location;lat;lon;timestamp;P1;durP1;ratioP1;P2;durP2;ratioP2
50681;SDS011;36779;52.168;20.878;2023-01-15T00:00:29;13.20;;;4.60;;
50681;SDS011;36779;52.168;20.878;2023-01-15T00:03:40;15.10;;;5.70;;
50681;SDS011;36779;52.168;20.878;2023-01-15T00:06:30;16.10;;;6.50;;
50681;SDS011;36779;52.168;20.878;2023-01-15T00:09:25;18.40;;;7.10;;
50681;SDS011;36779;52.168;20.878;2023-01-15T00:12:16;19.40;;;6.40;;
50681;SDS011;36779;52.168;20.878;2023-01-15T00:15:06;15.70;;;6.30;;
50681;SDS011;36779;52.168;20.878;2023-01-15T00:18:01;15.20;;;5.20;;
50681;SDS011;36779;52.168;20.878;2023-01-15T00:20:58;15.50;;;5.80;;
50681;SDS011;36779;52.168;20.878;2023-01-15T00:23:49;16.80;;;6.30;;
50681;SDS011;36779;52.168;20.878;2023-01-15T00:26:48;19.10;;;7.70;;
50681;SDS011;36779;52.168;20.878;2023-01-15T00:29:56;17.00;;;7.00;;
50681;SDS011;36779;52.168;20.878;2023-01-15T00:32:48;16.50;;;6.50;;
50681;SDS011;36779;52.168;20.878;2023-01-15T00:35:38;16.60;;;7.50;;
50681;SDS011;36779;52.168;20.878;2023-01-15T00:38:18;13.20;;;7.20;;
50681;SDS011;36779;52.168;20.878;2023-01-15T00:41:09;10.60;;;5.20;;
50681;SDS011;36779;52.168;20.878;2023-01-15T00:44:03;18.10;;;6.30;;
50681;SDS011;36779;52.168;20.878;2023-01-15T00:46:53;16.00;;;7.10;;
50681;SDS011;36779;52.168;20.878;2023-01-15T00:52:32;18.60;;;6.20;;
50681;SDS011;36779;52.168;20.878;2023-01-15T00:55:28;15.30;;;5.90;;
50681;SDS011;36779;52.168;20.878;2023-01-15T00:58:19;15.90;;;6.40;;
50681;SDS011;36779;52.168;20.878;2023-01-15T01:01:10;10.80;;;5.20;;
50681;SDS011;36779;52.168;20.878;2023-01-15T01:04:00;16.50;;;6.60;;
50681;SDS011;36779;52.168;20.878;2023-01-15T01:06:49;15.50;;;6.40;;
50681;SDS011;36779;52.168;20.878;2023-01-15T01:09:41;12.70;;;5.30;;
50681;SDS011;36779;52.168;20.878;2023-01-15T01:12:32;18.20;;;6.80;;
50681;SDS011;36779;52.168;20.878;2023-01-15T01:15:25;14.50;;;5.80;;
50681;SDS011;36779;52.168;20.878;2023-01-15T01:18:14;17.20;;;6.10;;
50681;SDS011;36779;52.168;20.878;2023-01-15T01:21:07;12.40;;;5.10;;
50681;SDS011;36779;52.168;20.878;2023-01-15T01:23:59;13.00;;;5.80;;
50681;SDS011;36779;52.168;20.878;2023-01-15T01:26:49;16.30;;;5.70;;
50681;SDS011;36779;52.168;20.878;2023-01-15T01:29:42;13.20;;;5.70;;
50681;SDS011;36779;52.168;20.878;2023-01-15T01:32:32;12.20;;;5.40;;
50681;SDS011;36779;52.168;20.878;2023-01-15T01:35:30;13.30;;;5.30;;
50681;SDS011;36779;52.168;20.878;2023-01-15T01:38:20;13.30;;;4.80;;
50681;SDS011;36779;52.168;20.878;2023-01-15T01:41:12;11.30;;;4.80;;
50681;SDS011;36779;52.168;20.878;2023-01-15T01:44:05;12.20;;;5.60;;
50681;SDS011;36779;52.168;20.878;2023-01-15T01:47:24;11.20;;;4.60;;
50681;SDS011;36779;52.168;20.878;2023-01-15T01:50:21;12.30;;;5.50;;
50681;SDS011;36779;52.168;20.878;2023-01-15T01:53:13;12.50;;;4.60;;
50681;SDS011;36779;52.168;20.878;2023-01-15T01:56:08;11.60;;;5.20;;
50681;SDS011;36779;52.168;20.878;2023-01-15T01:59:04;11.50;;;4.80;;
50681;SDS011;36779;52.168;20.878;2023-01-15T02:02:00;11.70;;;5.30;;
50681;SDS011;36779;52.168;20.878;2023-01-15T02:04:50;12.40;;;5.00;;
50681;SDS011;36779;52.168;20.878;2023-01-15T02:07:39;10.80;;;4.30;;
50681;SDS011;36779;52.168;20.878;2023-01-15T02:10:39;9.10;;;4.30;;
50681;SDS011;36779;52.168;20.878;2023-01-15T02:13:31;10.00;;;4.00;;
50681;SDS011;36779;52.168;20.878;2023-01-15T02:16:30;12.20;;;4.80;;
50681;SDS011;36779;52.168;20.878;2023-01-15T02:19:29;10.80;;;4.50;;
50681;SDS011;36779;52.168;20.878;2023-01-15T02:22:31;14.40;;;5.00;;
50681;SDS011;36779;52.168;20.878;2023-01-15T02:25:32;9.70;;;4.40;;
50681;SDS011;36779;52.168;20.878;2023-01-15T02:28:42;9.20;;;4.60;;
50681;SDS011;36779;52.168;20.878;2023-01-15T02:31:35;12.60;;;4.70;;
50681;SDS011;36779;52.168;20.878;2023-01-15T02:34:29;13.60;;;5.10;;
50681;SDS011;36779;52.168;20.878;2023-01-15T02:37:24;9.20;;;4.30;;
50681;SDS011;36779;52.168;20.878;2023-01-15T02:40:20;10.60;;;4.30;;
50681;SDS011;36779;52.168;20.878;2023-01-15T02:43:12;11.40;;;4.00;;
50681;SDS011;36779;52.168;20.878;2023-01-15T02:46:03;12.70;;;4.40;;
50681;SDS011;36779;52.168;20.878;2023-01-15T02:49:01;12.00;;;4.10;;
50681;SDS011;36779;52.168;20.878;2023-01-15T02:51:54;10.10;;;4.50;;
50681;SDS011;36779;52.168;20.878;2023-01-15T02:54:51;10.00;;;4.40;;
50681;SDS011;36779;52.168;20.878;2023-01-15T02:57:45;10.70;;;4.10;;
50681;SDS011;36779;52.168;20.878;2023-01-15T03:00:19;8.60;;;3.50;;
50681;SDS011;36779;52.168;20.878;2023-01-15T03:03:12;16.00;;;4.80;;
50681;SDS011;36779;52.168;20.878;2023-01-15T03:06:00;11.70;;;4.30;;
50681;SDS011;36779;52.168;20.878;2023-01-15T03:08:55;9.90;;;4.10;;
50681;SDS011;36779;52.168;20.878;2023-01-15T03:11:50;13.10;;;5.20;;
50681;SDS011;36779;52.168;20.878;2023-01-15T03:14:51;11.90;;;4.10;;
50681;SDS011;36779;52.168;20.878;2023-01-15T03:17:51;8.60;;;3.80;;
50681;SDS011;36779;52.168;20.878;2023-01-15T03:20:44;12.30;;;5.30;;
50681;SDS011;36779;52.168;20.878;2023-01-15T03:23:38;12.30;;;4.70;;
50681;SDS011;36779;52.168;20.878;2023-01-15T03:26:33;11.50;;;4.30;;
50681;SDS011;36779;52.168;20.878;2023-01-15T03:32:21;9.10;;;3.50;;
50681;SDS011;36779;52.168;20.878;2023-01-15T03:38:31;11.60;;;4.50;;
50681;SDS011;36779;52.168;20.878;2023-01-15T03:41:24;10.70;;;4.60;;
50681;SDS011;36779;52.168;20.878;2023-01-15T03:44:23;12.70;;;4.40;;
50681;SDS011;36779;52.168;20.878;2023-01-15T03:47:17;9.30;;;3.60;;
50681;SDS011;36779;52.168;20.878;2023-01-15T03:50:22;13.90;;;4.80;;
50681;SDS011;36779;52.168;20.878;2023-01-15T03:53:19;9.20;;;3.80;;
50681;SDS011;36779;52.168;20.878;2023-01-15T03:56:17;11.00;;;5.00;;
50681;SDS011;36779;52.168;20.878;2023-01-15T03:59:17;13.60;;;4.80;;
50681;SDS011;36779;52.168;20.878;2023-01-15T04:02:05;14.50;;;4.60;;
50681;SDS011;36779;52.168;20.878;2023-01-15T04:07:51;12.50;;;4.40;;
50681;SDS011;36779;52.168;20.878;2023-01-15T04:10:50;11.20;;;3.70;;
50681;SDS011;36779;52.168;20.878;2023-01-15T04:13:43;11.20;;;3.80;;
50681;SDS011;36779;52.168;20.878;2023-01-15T04:19:40;9.00;;;3.70;;
50681;SDS011;36779;52.168;20.878;2023-01-15T04:22:31;10.80;;;3.90;;
50681;SDS011;36779;52.168;20.878;2023-01-15T04:25:23;9.90;;;3.70;;
50681;SDS011;36779;52.168;20.878;2023-01-15T04:28:19;10.00;;;4.20;;
50681;SDS011;36779;52.168;20.878;2023-01-15T04:31:13;10.20;;;3.70;;
50681;SDS011;36779;52.168;20.878;2023-01-15T04:34:03;10.00;;;3.50;;
50681;SDS011;36779;52.168;20.878;2023-01-15T04:36:52;12.80;;;4.70;;
50681;SDS011;36779;52.168;20.878;2023-01-15T04:39:42;8.90;;;3.60;;
50681;SDS011;36779;52.168;20.878;2023-01-15T04:42:55;11.40;;;4.10;;
50681;SDS011;36779;52.168;20.878;2023-01-15T04:46:04;9.40;;;3.60;;
50681;SDS011;36779;52.168;20.878;2023-01-15T04:49:22;9.50;;;3.30;;
50681;SDS011;36779;52.168;20.878;2023-01-15T04:52:12;8.30;;;3.50;;
50681;SDS011;36779;52.168;20.878;2023-01-15T04:55:08;10.80;;;4.10;;
50681;SDS011;36779;52.168;20.878;2023-01-15T04:57:59;6.30;;;2.90;;
50681;SDS011;36779;52.168;20.878;2023-01-15T05:00:51;5.80;;;2.40;;
50681;SDS011;36779;52.168;20.878;2023-01-15T05:03:42;9.20;;;2.50;;
50681;SDS011;36779;52.168;20.878;2023-01-15T05:06:33;9.30;;;2.80;;
50681;SDS011;36779;52.168;20.878;2023-01-15T05:09:23;7.70;;;3.10;;
50681;SDS011;36779;52.168;20.878;2023-01-15T05:12:14;9.00;;;2.90;;
50681;SDS011;36779;52.168;20.878;2023-01-15T05:15:10;6.50;;;2.60;;
50681;SDS011;36779;52.168;20.878;2023-01-15T05:17:59;6.70;;;2.50;;
50681;SDS011;36779;52.168;20.878;2023-01-15T05:20:51;6.40;;;2.80;;
50681;SDS011;36779;52.168;20.878;2023-01-15T05:23:41;7.60;;;3.10;;
50681;SDS011;36779;52.168;20.878;2023-01-15T05:26:32;8.60;;;2.70;;
50681;SDS011;36779;52.168;20.878;2023-01-15T05:29:22;6.40;;;2.30;;
50681;SDS011;36779;52.168;20.878;2023-01-15T05:32:14;5.30;;;2.80;;
50681;SDS011;36779;52.168;20.878;2023-01-15T05:35:05;5.40;;;2.50;;
50681;SDS011;36779;52.168;20.878;2023-01-15T05:37:54;4.60;;;2.00;;
50681;SDS011;36779;52.168;20.878;2023-01-15T05:40:45;5.80;;;2.30;;
50681;SDS011;36779;52.168;20.878;2023-01-15T05:43:40;7.70;;;1.70;;
50681;SDS011;36779;52.168;20.878;2023-01-15T05:46:31;5.30;;;1.90;;
50681;SDS011;36779;52.168;20.878;2023-01-15T05:49:25;4.70;;;2.00;;
50681;SDS011;36779;52.168;20.878;2023-01-15T05:52:16;4.50;;;2.00;;
50681;SDS011;36779;52.168;20.878;2023-01-15T05:55:00;5.70;;;2.20;;
50681;SDS011;36779;52.168;20.878;2023-01-15T05:57:55;6.30;;;2.30;;
50681;SDS011;36779;52.168;20.878;2023-01-15T06:00:54;5.80;;;2.40;;
50681;SDS011;36779;52.168;20.878;2023-01-15T06:03:50;4.60;;;2.10;;
50681;SDS011;36779;52.168;20.878;2023-01-15T06:06:43;4.90;;;2.10;;
50681;SDS011;36779;52.168;20.878;2023-01-15T06:09:32;4.10;;;2.00;;
50681;SDS011;36779;52.168;20.878;2023-01-15T06:12:16;7.70;;;2.50;;
50681;SDS011;36779;52.168;20.878;2023-01-15T06:15:10;5.40;;;2.10;;
50681;SDS011;36779;52.168;20.878;2023-01-15T06:17:59;4.80;;;1.80;;
50681;SDS011;36779;52.168;20.878;2023-01-15T06:21:11;3.30;;;1.80;;
50681;SDS011;36779;52.168;20.878;2023-01-15T06:24:05;4.40;;;2.10;;
50681;SDS011;36779;52.168;20.878;2023-01-15T06:27:00;3.80;;;1.80;;
50681;SDS011;36779;52.168;20.878;2023-01-15T06:29:41;6.30;;;2.20;;
50681;SDS011;36779;52.168;20.878;2023-01-15T06:32:30;5.30;;;2.10;;
50681;SDS011;36779;52.168;20.878;2023-01-15T06:35:40;4.80;;;2.20;;
50681;SDS011;36779;52.168;20.878;2023-01-15T06:38:30;4.20;;;1.80;;
50681;SDS011;36779;52.168;20.878;2023-01-15T06:41:22;4.10;;;1.90;;
50681;SDS011;36779;52.168;20.878;2023-01-15T06:44:32;4.60;;;1.90;;
50681;SDS011;36779;52.168;20.878;2023-01-15T06:47:43;6.00;;;2.40;;
50681;SDS011;36779;52.168;20.878;2023-01-15T06:50:34;3.40;;;1.50;;
50681;SDS011;36779;52.168;20.878;2023-01-15T06:53:28;6.40;;;1.90;;
50681;SDS011;36779;52.168;20.878;2023-01-15T06:56:18;4.60;;;2.00;;
50681;SDS011;36779;52.168;20.878;2023-01-15T06:59:12;6.20;;;1.80;;
50681;SDS011;36779;52.168;20.878;2023-01-15T07:02:03;6.10;;;2.40;;
50681;SDS011;36779;52.168;20.878;2023-01-15T07:04:45;5.90;;;1.60;;
50681;SDS011;36779;52.168;20.878;2023-01-15T07:07:36;5.50;;;1.80;;
50681;SDS011;36779;52.168;20.878;2023-01-15T07:10:26;4.00;;;2.00;;
50681;SDS011;36779;52.168;20.878;2023-01-15T07:13:26;4.70;;;1.70;;
50681;SDS011;36779;52.168;20.878;2023-01-15T07:16:15;4.20;;;1.70;;
50681;SDS011;36779;52.168;20.878;2023-01-15T07:19:08;5.20;;;2.10;;
50681;SDS011;36779;52.168;20.878;2023-01-15T07:21:59;3.00;;;1.70;;
50681;SDS011;36779;52.168;20.878;2023-01-15T07:24:49;5.10;;;2.20;;
50681;SDS011;36779;52.168;20.878;2023-01-15T07:27:41;4.60;;;2.50;;
50681;SDS011;36779;52.168;20.878;2023-01-15T07:30:32;6.90;;;2.20;;
50681;SDS011;36779;52.168;20.878;2023-01-15T07:33:23;7.40;;;2.40;;
50681;SDS011;36779;52.168;20.878;2023-01-15T07:36:14;3.40;;;1.70;;
50681;SDS011;36779;52.168;20.878;2023-01-15T07:41:55;4.40;;;1.90;;
50681;SDS011;36779;52.168;20.878;2023-01-15T07:45:09;3.70;;;1.60;;
50681;SDS011;36779;52.168;20.878;2023-01-15T07:48:17;4.70;;;1.70;;
50681;SDS011;36779;52.168;20.878;2023-01-15T07:51:25;6.80;;;2.00;;
50681;SDS011;36779;52.168;20.878;2023-01-15T07:54:16;5.40;;;1.70;;
50681;SDS011;36779;52.168;20.878;2023-01-15T07:57:06;6.50;;;2.00;;
50681;SDS011;36779;52.168;20.878;2023-01-15T08:00:00;3.50;;;1.30;;
50681;SDS011;36779;52.168;20.878;2023-01-15T08:02:51;3.00;;;1.50;;
50681;SDS011;36779;52.168;20.878;2023-01-15T08:06:04;4.60;;;1.90;;
50681;SDS011;36779;52.168;20.878;2023-01-15T08:08:55;5.80;;;2.30;;
50681;SDS011;36779;52.168;20.878;2023-01-15T08:11:57;3.30;;;1.50;;
50681;SDS011;36779;52.168;20.878;2023-01-15T08:15:08;4.30;;;2.00;;
50681;SDS011;36779;52.168;20.878;2023-01-15T08:18:02;4.30;;;1.50;;
50681;SDS011;36779;52.168;20.878;2023-01-15T08:20:57;3.00;;;1.30;;
50681;SDS011;36779;52.168;20.878;2023-01-15T08:23:39;5.20;;;1.90;;
50681;SDS011;36779;52.168;20.878;2023-01-15T08:26:31;4.60;;;2.10;;
50681;SDS011;36779;52.168;20.878;2023-01-15T08:29:23;4.50;;;1.60;;
50681;SDS011;36779;52.168;20.878;2023-01-15T08:32:05;3.40;;;1.60;;
50681;SDS011;36779;52.168;20.878;2023-01-15T08:34:56;3.60;;;1.80;;
50681;SDS011;36779;52.168;20.878;2023-01-15T08:37:49;3.60;;;1.90;;
50681;SDS011;36779;52.168;20.878;2023-01-15T08:40:38;4.70;;;1.70;;
50681;SDS011;36779;52.168;20.878;2023-01-15T08:43:42;5.00;;;2.00;;
50681;SDS011;36779;52.168;20.878;2023-01-15T08:46:33;4.80;;;2.20;;
50681;SDS011;36779;52.168;20.878;2023-01-15T08:49:29;6.40;;;2.10;;
50681;SDS011;36779;52.168;20.878;2023-01-15T08:52:18;4.20;;;1.80;;
50681;SDS011;36779;52.168;20.878;2023-01-15T08:55:08;4.80;;;1.90;;
50681;SDS011;36779;52.168;20.878;2023-01-15T08:58:02;4.20;;;2.00;;
50681;SDS011;36779;52.168;20.878;2023-01-15T09:00:52;4.00;;;1.60;;
50681;SDS011;36779;52.168;20.878;2023-01-15T09:03:50;4.80;;;2.00;;
50681;SDS011;36779;52.168;20.878;2023-01-15T09:06:39;4.40;;;1.90;;
50681;SDS011;36779;52.168;20.878;2023-01-15T09:09:30;6.40;;;2.30;;
50681;SDS011;36779;52.168;20.878;2023-01-15T09:12:23;4.90;;;1.90;;
50681;SDS011;36779;52.168;20.878;2023-01-15T09:15:23;7.10;;;2.40;;
50681;SDS011;36779;52.168;20.878;2023-01-15T09:18:18;3.20;;;1.40;;
50681;SDS011;36779;52.168;20.878;2023-01-15T09:21:08;4.00;;;1.90;;
50681;SDS011;36779;52.168;20.878;2023-01-15T09:24:04;4.50;;;2.20;;
50681;SDS011;36779;52.168;20.878;2023-01-15T09:27:00;5.20;;;1.80;;
50681;SDS011;36779;52.168;20.878;2023-01-15T09:29:50;4.80;;;2.10;;
50681;SDS011;36779;52.168;20.878;2023-01-15T09:32:41;4.70;;;2.30;;
50681;SDS011;36779;52.168;20.878;2023-01-15T09:35:52;6.70;;;2.10;;
50681;SDS011;36779;52.168;20.878;2023-01-15T09:38:45;5.30;;;1.90;;
50681;SDS011;36779;52.168;20.878;2023-01-15T09:41:47;7.70;;;2.60;;
50681;SDS011;36779;52.168;20.878;2023-01-15T09:45:06;8.00;;;2.40;;
50681;SDS011;36779;52.168;20.878;2023-01-15T09:48:10;4.60;;;2.30;;
50681;SDS011;36779;52.168;20.878;2023-01-15T09:51:29;5.40;;;2.10;;
50681;SDS011;36779;52.168;20.878;2023-01-15T09:54:33;9.50;;;2.80;;
50681;SDS011;36779;52.168;20.878;2023-01-15T09:57:32;9.70;;;3.20;;
50681;SDS011;36779;52.168;20.878;2023-01-15T10:00:26;9.30;;;2.80;;
50681;SDS011;36779;52.168;20.878;2023-01-15T10:03:30;7.20;;;3.30;;
50681;SDS011;36779;52.168;20.878;2023-01-15T10:06:29;8.40;;;3.10;;
50681;SDS011;36779;52.168;20.878;2023-01-15T10:09:33;6.90;;;2.80;;
50681;SDS011;36779;52.168;20.878;2023-01-15T10:12:30;11.30;;;2.90;;
50681;SDS011;36779;52.168;20.878;2023-01-15T10:15:34;6.00;;;2.40;;
50681;SDS011;36779;52.168;20.878;2023-01-15T10:18:27;5.10;;;2.50;;
50681;SDS011;36779;52.168;20.878;2023-01-15T10:21:22;10.30;;;3.10;;
50681;SDS011;36779;52.168;20.878;2023-01-15T10:24:27;5.50;;;2.40;;
50681;SDS011;36779;52.168;20.878;2023-01-15T10:27:35;6.30;;;2.40;;
50681;SDS011;36779;52.168;20.878;2023-01-15T10:30:30;7.40;;;3.20;;
50681;SDS011;36779;52.168;20.878;2023-01-15T10:33:37;7.50;;;2.50;;
50681;SDS011;36779;52.168;20.878;2023-01-15T10:36:39;5.70;;;2.10;;
50681;SDS011;36779;52.168;20.878;2023-01-15T10:39:40;5.60;;;2.40;;
50681;SDS011;36779;52.168;20.878;2023-01-15T10:42:44;7.00;;;3.10;;
50681;SDS011;36779;52.168;20.878;2023-01-15T10:45:52;4.90;;;2.20;;
50681;SDS011;36779;52.168;20.878;2023-01-15T10:48:44;5.20;;;2.20;;
50681;SDS011;36779;52.168;20.878;2023-01-15T10:51:49;5.50;;;2.30;;
50681;SDS011;36779;52.168;20.878;2023-01-15T10:54:43;3.50;;;1.90;;
50681;SDS011;36779;52.168;20.878;2023-01-15T10:57:40;4.90;;;2.00;;
50681;SDS011;36779;52.168;20.878;2023-01-15T11:00:57;3.10;;;1.40;;
50681;SDS011;36779;52.168;20.878;2023-01-15T11:03:52;5.90;;;2.20;;
50681;SDS011;36779;52.168;20.878;2023-01-15T11:06:42;6.60;;;2.50;;
50681;SDS011;36779;52.168;20.878;2023-01-15T11:09:32;4.00;;;2.30;;
50681;SDS011;36779;52.168;20.878;2023-01-15T11:16:03;5.80;;;2.40;;
50681;SDS011;36779;52.168;20.878;2023-01-15T11:19:34;5.00;;;1.80;;
50681;SDS011;36779;52.168;20.878;2023-01-15T11:22:32;4.40;;;2.40;;
50681;SDS011;36779;52.168;20.878;2023-01-15T11:25:32;5.30;;;1.50;;
50681;SDS011;36779;52.168;20.878;2023-01-15T11:28:32;5.90;;;2.30;;
50681;SDS011;36779;52.168;20.878;2023-01-15T11:31:52;5.60;;;1.70;;
50681;SDS011;36779;52.168;20.878;2023-01-15T11:34:50;7.60;;;2.30;;
50681;SDS011;36779;52.168;20.878;2023-01-15T11:38:11;3.60;;;2.00;;
50681;SDS011;36779;52.168;20.878;2023-01-15T11:41:03;6.40;;;2.10;;
50681;SDS011;36779;52.168;20.878;2023-01-15T11:43:54;5.40;;;1.90;;
50681;SDS011;36779;52.168;20.878;2023-01-15T11:47:10;5.10;;;2.40;;
50681;SDS011;36779;52.168;20.878;2023-01-15T11:50:25;4.50;;;2.00;;
50681;SDS011;36779;52.168;20.878;2023-01-15T11:53:32;6.00;;;2.10;;
50681;SDS011;36779;52.168;20.878;2023-01-15T11:56:44;4.90;;;2.50;;
50681;SDS011;36779;52.168;20.878;2023-01-15T11:59:35;5.70;;;2.30;;
50681;SDS011;36779;52.168;20.878;2023-01-15T12:02:32;3.80;;;1.90;;
50681;SDS011;36779;52.168;20.878;2023-01-15T12:05:52;9.00;;;2.50;;
50681;SDS011;36779;52.168;20.878;2023-01-15T12:09:03;6.20;;;2.40;;
50681;SDS011;36779;52.168;20.878;2023-01-15T12:12:22;5.30;;;2.00;;
50681;SDS011;36779;52.168;20.878;2023-01-15T12:15:58;5.70;;;2.40;;
50681;SDS011;36779;52.168;20.878;2023-01-15T12:19:01;5.30;;;2.20;;
50681;SDS011;36779;52.168;20.878;2023-01-15T12:22:35;4.20;;;2.00;;
50681;SDS011;36779;52.168;20.878;2023-01-15T12:25:45;7.90;;;2.10;;
50681;SDS011;36779;52.168;20.878;2023-01-15T12:29:05;6.60;;;2.10;;
50681;SDS011;36779;52.168;20.878;2023-01-15T12:32:02;6.80;;;2.10;;
50681;SDS011;36779;52.168;20.878;2023-01-15T12:35:02;7.20;;;2.70;;
50681;SDS011;36779;52.168;20.878;2023-01-15T12:38:49;6.20;;;2.40;;
50681;SDS011;36779;52.168;20.878;2023-01-15T12:41:51;7.90;;;3.00;;
50681;SDS011;36779;52.168;20.878;2023-01-15T12:45:20;4.60;;;1.80;;
50681;SDS011;36779;52.168;20.878;2023-01-15T12:48:26;2.70;;;1.60;;
50681;SDS011;36779;52.168;20.878;2023-01-15T12:51:35;4.90;;;2.20;;
50681;SDS011;36779;52.168;20.878;2023-01-15T12:54:45;4.30;;;2.30;;
50681;SDS011;36779;52.168;20.878;2023-01-15T12:57:53;4.60;;;2.30;;
50681;SDS011;36779;52.168;20.878;2023-01-15T13:00:57;4.50;;;2.40;;
50681;SDS011;36779;52.168;20.878;2023-01-15T13:04:07;6.00;;;2.40;;
50681;SDS011;36779;52.168;20.878;2023-01-15T13:07:09;6.70;;;2.70;;
50681;SDS011;36779;52.168;20.878;2023-01-15T13:10:12;8.50;;;4.50;;
50681;SDS011;36779;52.168;20.878;2023-01-15T13:13:14;5.20;;;2.30;;
50681;SDS011;36779;52.168;20.878;2023-01-15T13:16:25;5.80;;;2.90;;
50681;SDS011;36779;52.168;20.878;2023-01-15T13:19:50;10.80;;;4.50;;
50681;SDS011;36779;52.168;20.878;2023-01-15T13:23:14;8.40;;;2.90;;
50681;SDS011;36779;52.168;20.878;2023-01-15T13:26:28;8.00;;;2.60;;
50681;SDS011;36779;52.168;20.878;2023-01-15T13:30:07;5.70;;;2.90;;
50681;SDS011;36779;52.168;20.878;2023-01-15T13:33:15;6.00;;;2.40;;
50681;SDS011;36779;52.168;20.878;2023-01-15T13:36:23;7.20;;;2.40;;
50681;SDS011;36779;52.168;20.878;2023-01-15T13:39:36;7.10;;;2.50;;
50681;SDS011;36779;52.168;20.878;2023-01-15T13:42:43;6.10;;;2.50;;
50681;SDS011;36779;52.168;20.878;2023-01-15T13:45:39;7.50;;;2.80;;
50681;SDS011;36779;52.168;20.878;2023-01-15T13:48:54;6.80;;;2.60;;
50681;SDS011;36779;52.168;20.878;2023-01-15T13:51:50;6.20;;;2.50;;
50681;SDS011;36779;52.168;20.878;2023-01-15T13:54:49;6.20;;;2.40;;
50681;SDS011;36779;52.168;20.878;2023-01-15T13:57:48;5.30;;;2.40;;
50681;SDS011;36779;52.168;20.878;2023-01-15T14:00:41;4.10;;;2.30;;
50681;SDS011;36779;52.168;20.878;2023-01-15T14:03:37;6.00;;;2.30;;
50681;SDS011;36779;52.168;20.878;2023-01-15T14:09:51;9.60;;;3.30;;
50681;SDS011;36779;52.168;20.878;2023-01-15T14:12:50;8.60;;;4.20;;
50681;SDS011;36779;52.168;20.878;2023-01-15T14:15:59;7.00;;;4.00;;
50681;SDS011;36779;52.168;20.878;2023-01-15T14:19:09;4.90;;;2.40;;
50681;SDS011;36779;52.168;20.878;2023-01-15T14:22:30;8.70;;;3.90;;
50681;SDS011;36779;52.168;20.878;2023-01-15T14:25:44;6.00;;;2.60;;
50681;SDS011;36779;52.168;20.878;2023-01-15T14:28:56;6.70;;;2.90;;
50681;SDS011;36779;52.168;20.878;2023-01-15T14:32:54;4.40;;;2.50;;
50681;SDS011;36779;52.168;20.878;2023-01-15T14:35:53;6.50;;;3.10;;
50681;SDS011;36779;52.168;20.878;2023-01-15T14:39:02;6.40;;;2.70;;
50681;SDS011;36779;52.168;20.878;2023-01-15T14:42:00;8.10;;;3.20;;
50681;SDS011;36779;52.168;20.878;2023-01-15T14:45:23;6.50;;;3.10;;
50681;SDS011;36779;52.168;20.878;2023-01-15T14:48:32;6.90;;;2.70;;
50681;SDS011;36779;52.168;20.878;2023-01-15T14:51:44;5.90;;;2.80;;
50681;SDS011;36779;52.168;20.878;2023-01-15T14:54:41;6.00;;;2.70;;
50681;SDS011;36779;52.168;20.878;2023-01-15T14:57:36;8.60;;;3.10;;
50681;SDS011;36779;52.168;20.878;2023-01-15T15:00:33;6.60;;;2.90;;
50681;SDS011;36779;52.168;20.878;2023-01-15T15:03:32;7.30;;;2.50;;
50681;SDS011;36779;52.168;20.878;2023-01-15T15:06:34;7.90;;;2.60;;
50681;SDS011;36779;52.168;20.878;2023-01-15T15:09:37;7.00;;;2.60;;
50681;SDS011;36779;52.168;20.878;2023-01-15T15:12:43;6.60;;;2.70;;
50681;SDS011;36779;52.168;20.878;2023-01-15T15:15:47;6.70;;;2.70;;
50681;SDS011;36779;52.168;20.878;2023-01-15T15:18:54;7.80;;;3.30;;
50681;SDS011;36779;52.168;20.878;2023-01-15T15:22:02;7.00;;;3.00;;
50681;SDS011;36779;52.168;20.878;2023-01-15T15:25:00;6.80;;;3.40;;
50681;SDS011;36779;52.168;20.878;2023-01-15T15:28:04;7.20;;;3.10;;
50681;SDS011;36779;52.168;20.878;2023-01-15T15:33:53;6.50;;;2.80;;
50681;SDS011;36779;52.168;20.878;2023-01-15T15:36:58;5.60;;;2.10;;
50681;SDS011;36779;52.168;20.878;2023-01-15T15:39:46;5.80;;;2.90;;
50681;SDS011;36779;52.168;20.878;2023-01-15T15:43:00;6.40;;;3.30;;
50681;SDS011;36779;52.168;20.878;2023-01-15T15:46:23;7.50;;;4.20;;
50681;SDS011;36779;52.168;20.878;2023-01-15T15:49:49;7.40;;;3.10;;
50681;SDS011;36779;52.168;20.878;2023-01-15T15:52:47;8.00;;;3.10;;
50681;SDS011;36779;52.168;20.878;2023-01-15T15:55:43;7.40;;;2.70;;
50681;SDS011;36779;52.168;20.878;2023-01-15T15:58:40;7.80;;;3.20;;
50681;SDS011;36779;52.168;20.878;2023-01-15T16:01:37;6.90;;;3.40;;
50681;SDS011;36779;52.168;20.878;2023-01-15T16:04:33;6.80;;;3.40;;
50681;SDS011;36779;52.168;20.878;2023-01-15T16:07:24;6.40;;;2.80;;
50681;SDS011;36779;52.168;20.878;2023-01-15T16:10:36;10.60;;;3.50;;
50681;SDS011;36779;52.168;20.878;2023-01-15T16:13:24;7.80;;;3.30;;
50681;SDS011;36779;52.168;20.878;2023-01-15T16:16:13;9.20;;;3.50;;
50681;SDS011;36779;52.168;20.878;2023-01-15T16:19:04;7.80;;;3.80;;
50681;SDS011;36779;52.168;20.878;2023-01-15T16:22:06;9.60;;;3.80;;
50681;SDS011;36779;52.168;20.878;2023-01-15T16:28:20;6.50;;;3.50;;
50681;SDS011;36779;52.168;20.878;2023-01-15T16:31:17;11.00;;;3.90;;
50681;SDS011;36779;52.168;20.878;2023-01-15T16:34:12;9.50;;;4.20;;
50681;SDS011;36779;52.168;20.878;2023-01-15T16:37:15;9.60;;;3.90;;
50681;SDS011;36779;52.168;20.878;2023-01-15T16:40:25;7.80;;;3.60;;
50681;SDS011;36779;52.168;20.878;2023-01-15T16:43:23;7.30;;;3.40;;
50681;SDS011;36779;52.168;20.878;2023-01-15T16:46:15;8.80;;;3.60;;
50681;SDS011;36779;52.168;20.878;2023-01-15T16:49:29;9.40;;;4.70;;
50681;SDS011;36779;52.168;20.878;2023-01-15T16:52:35;16.60;;;8.20;;
50681;SDS011;36779;52.168;20.878;2023-01-15T16:55:46;17.00;;;6.90;;
50681;SDS011;36779;52.168;20.878;2023-01-15T17:01:40;22.10;;;9.20;;
50681;SDS011;36779;52.168;20.878;2023-01-15T17:04:41;39.50;;;16.60;;
50681;SDS011;36779;52.168;20.878;2023-01-15T17:07:39;29.80;;;12.70;;
50681;SDS011;36779;52.168;20.878;2023-01-15T17:10:38;16.30;;;6.70;;
50681;SDS011;36779;52.168;20.878;2023-01-15T17:13:42;19.60;;;7.20;;
50681;SDS011;36779;52.168;20.878;2023-01-15T17:16:35;25.10;;;11.10;;
50681;SDS011;36779;52.168;20.878;2023-01-15T17:19:28;25.10;;;9.30;;
50681;SDS011;36779;52.168;20.878;2023-01-15T17:22:23;15.30;;;7.00;;
50681;SDS011;36779;52.168;20.878;2023-01-15T17:25:34;13.50;;;6.40;;
50681;SDS011;36779;52.168;20.878;2023-01-15T17:28:27;29.90;;;12.30;;
50681;SDS011;36779;52.168;20.878;2023-01-15T17:31:24;11.90;;;5.10;;
50681;SDS011;36779;52.168;20.878;2023-01-15T17:34:19;14.70;;;6.10;;
50681;SDS011;36779;52.168;20.878;2023-01-15T17:37:14;16.50;;;7.40;;
50681;SDS011;36779;52.168;20.878;2023-01-15T17:40:09;22.50;;;8.60;;
50681;SDS011;36779;52.168;20.878;2023-01-15T17:43:03;24.50;;;9.30;;
50681;SDS011;36779;52.168;20.878;2023-01-15T17:45:57;17.30;;;7.30;;
50681;SDS011;36779;52.168;20.878;2023-01-15T17:49:03;19.20;;;8.60;;
50681;SDS011;36779;52.168;20.878;2023-01-15T17:51:59;17.20;;;8.20;;
50681;SDS011;36779;52.168;20.878;2023-01-15T17:54:57;24.00;;;10.20;;
50681;SDS011;36779;52.168;20.878;2023-01-15T17:58:12;22.10;;;8.60;;
50681;SDS011;36779;52.168;20.878;2023-01-15T18:01:29;22.40;;;9.10;;
50681;SDS011;36779;52.168;20.878;2023-01-15T18:04:51;21.70;;;8.10;;
50681;SDS011;36779;52.168;20.878;2023-01-15T18:08:08;21.50;;;8.20;;
50681;SDS011;36779;52.168;20.878;2023-01-15T18:11:04;25.70;;;10.40;;